Gassaway, WV

11:47 AM EST on March 01, 2015 (GMT -0500)
Buckhannon | Change Station
CLOSE
Current Station
Airport
Location: Buckhannon,
Elevation: 1634 ft
Nearby Weather Stations

Elev 1634 ft 39.00 °N, 80.27 °W | Updated 12 minutes ago

Ice Pellets
Ice Pellets
34 °F
Feels Like 30 °F
N
5
Wind Variable Wind from SSW

Today
High -- | Low -- °F
--% Chance of Precip.
Yesterday
High -- | Low -- °F
Precip. -- in
6:55 AM 6:15 PM
Waxing Gibbous, 86% visible
Pressure 30.38 in
Visibility 3.0 miles
Clouds Few 100 ft
Few 1000 ft
Overcast 1500 ft
Windchill 30 °F
Dew Point 34 °F
Humidity 100%
Rainfall 0.00 in
Snow Depth Not available.
UV 2 out of 12
Pollen .30 out of 12
Air Quality Not available.
Flu Activity Not available.
METAR KW22 011635Z AUTO 20004KT 3SM -RA FEW001 FEW010 OVC015 01/01 A3038 RMK AO2

More Conditions Fewer Conditions

Pressure 30.38 in
Visibility 3.0 miles
Clouds Few 100 ft
Few 1000 ft
Overcast 1500 ft
Windchill 30 °F
Dew Point 34 °F
Humidity 100%
Rainfall 0.00 in
Snow Depth Not available.
UV 2 out of 12
Pollen .30 out of 12
Air Quality Not available.
Flu Activity Not available.
METAR KW22 011635Z AUTO 20004KT 3SM -RA FEW001 FEW010 OVC015 01/01 A3038 RMK AO2

More Conditions Fewer Conditions

10-Day Weather Forecast

Almanac

Astronomy

Mar. 01, 2015 Rise Set
Actual Time
Civil Twilight
Nautical Twilight
Astronomical Twilight
Moon
Length of Visible Light
Length of Day
Tomorrow will be .
, % of the Moon is Illuminated

Today's Extremes

State Highs State Lows

Community

WunderPhotos

Upload Photos

1,801,451 photos uploaded!

WunderBlogs® & News

Nearby

Air Quality

  Air Quality AQ Index Pollutant
Not available.

Snow Depth

Station Depth Elevation

Earthquake Activity

City Distance Mag. Time & Date
Minimum magnitude displayed is 2.5.

Coastal Water Temperatures

Place Temperature

Nearby Weather Stations